Weather at Ketchikan Harbor Seaplane Base

Public forecast

Using degrees Fahrenheit for public forecast. Weather courtesy of forecast.io.

Closest aviation weather report (METAR) to Ketchikan Harbor Seaplane Base

Closest report is Ketchikan International Airport, 1.3 nm (2.4 km) WNW. Retrieved 2020/10/29 12:33 UTC (0 seconds ago):

PAKT 291233Z AUTO 00000KT 2SM BR OVC004 02/02 A3007

Closest aviation forecast (TAF) to Ketchikan Harbor Seaplane Base

Closest forecast is Ketchikan International Airport, 1.3 nm (2.4 km) WNW. Retrieved 2020/10/29 12:36 UTC (0 seconds ago):

TAF PAKT 291133Z 2912/3012 00000KT 1SM BR BKN050 TEMPO 2912/2916 VRB03KT 1/2SM FG OVC003 FM291600 VRB03KT 5SM BR FEW005 SCT050 FM291900 VRB04KT P6SM SCT050 FM300600 30011KT P6SM OVC050 AMD LTD TO CLD VIS AND WIND 2912/2915